Time;durP1;ratioP1;P1;durP2;ratioP2;P2;SDS_P1;SDS_P2;PMS_P1;PMS_P2;Temp;Humidity;BMP_temperature;BMP_pressure;BME280_temperature;BME280_humidity;BME280_pressure;Samples;Min_cycle;Max_cycle;Signal;HPM_P1;HPM_P2
2022/04/19 00:00:42;;;;;;;;;;;;;;;9.26;100.00;100718.63;5084599;28;20016;-78
2022/04/19 00:03:09;;;;;;;;;;;;;;;9.26;100.00;100687.09;5110050;27;20359;-76
2022/04/19 00:05:36;;;;;;;;;;;;;;;9.14;100.00;100671.75;5121621;27;20355;-77
2022/04/19 00:08:01;;;;;;;;;;;;;;;9.09;100.00;100654.91;5084662;28;19920;-75
2022/04/19 00:10:28;;;;;;;;;;;;;;;9.04;100.00;100653.84;5114745;28;20045;-77
2022/04/19 00:12:56;;;;;;;;;;;;;;;8.95;100.00;100629.03;5093415;28;20008;-78
2022/04/19 00:15:21;;;;;;;;;;;;;;;8.94;100.00;100608.84;5106418;28;20582;-77
2022/04/19 00:17:47;;;;;;;;;;;;;;;8.84;100.00;100588.34;5086484;28;19920;-77
2022/04/19 00:20:12;;;;;;;;;;;;;;;8.89;100.00;100578.00;5092996;28;19916;-77
2022/04/19 00:22:38;;;;;;;;;;;;;;;8.92;100.00;100565.88;5096539;28;20290;-77
2022/04/19 00:25:07;;;;;;;;;;;;;;;8.96;100.00;100557.28;5091901;28;19915;-78
2022/04/19 00:27:33;;;;;;;;;;;;;;;8.91;100.00;100539.56;5096220;28;19920;-77
2022/04/19 00:29:59;;;;;;;;;;;;;;;8.95;100.00;100538.84;5087986;28;19975;-77
2022/04/19 00:32:24;;;;;;;;;;;;;;;8.93;100.00;100525.66;5085766;28;19916;-77
2022/04/19 00:34:50;;;;;;;;;;;;;;;8.93;100.00;100509.91;5079071;28;19938;-74
2022/04/19 00:37:16;;;;;;;;;;;;;;;8.91;100.00;100498.44;5083908;28;20042;-76
2022/04/19 00:39:41;;;;;;;;;;;;;;;8.89;100.00;100465.09;5081990;28;20350;-77
2022/04/19 00:42:07;;;;;;;;;;;;;;;8.81;100.00;100451.69;5092105;28;19928;-76
2022/04/19 00:44:37;;;;;;;;;;;;;;;8.77;100.00;100440.16;5094299;28;20303;-77
2022/04/19 00:47:03;;;;;;;;;;;;;;;8.74;100.00;100441.78;5098364;28;19924;-78
2022/04/19 00:49:28;;;;;;;;;;;;;;;8.59;100.00;100439.47;5093805;28;20371;-76
2022/04/19 00:51:56;;;;;;;;;;;;;;;8.60;100.00;100429.03;5084471;28;19929;-77
2022/04/19 00:54:24;;;;;;;;;;;;;;;8.61;100.00;100432.56;5082597;28;19967;-77
2022/04/19 00:56:49;;;;;;;;;;;;;;;8.62;100.00;100411.63;5080309;28;19924;-76
2022/04/19 00:59:15;;;;;;;;;;;;;;;8.57;100.00;100397.41;5087766;28;20292;-77
2022/04/19 01:01:40;;;;;;;;;;;;;;;8.48;100.00;100378.72;5088770;28;19958;-76
2022/04/19 01:04:05;;;;;;;;;;;;;;;8.46;100.00;100359.41;5108102;28;19924;-76
2022/04/19 01:06:31;;;;;;;;;;;;;;;8.36;100.00;100342.41;5096962;28;20378;-76
2022/04/19 01:08:56;;;;;;;;;;;;;;;8.32;100.00;100326.50;5078874;28;20394;-75
2022/04/19 01:14:06;;;;;;;;;;;;;;;8.29;100.00;100302.78;5111961;28;20634;-78
2022/04/19 01:16:31;;;;;;;;;;;;;;;8.20;100.00;100301.63;5083604;28;20015;-76
2022/04/19 01:18:56;;;;;;;;;;;;;;;8.23;100.00;100296.47;5093614;28;20010;-76
2022/04/19 01:21:22;;;;;;;;;;;;;;;8.22;100.00;100286.81;5082742;28;20294;-76
2022/04/19 01:23:49;;;;;;;;;;;;;;;8.23;100.00;100290.31;5081948;28;20597;-74
2022/04/19 01:26:17;;;;;;;;;;;;;;;8.18;100.00;100279.66;5096454;28;19916;-75
2022/04/19 01:28:42;;;;;;;;;;;;;;;8.18;100.00;100271.78;5086562;28;19919;-76
2022/04/19 01:31:08;;;;;;;;;;;;;;;8.21;100.00;100257.91;5082135;28;19969;-76
2022/04/19 01:33:34;;;;;;;;;;;;;;;8.16;100.00;100246.38;5088890;28;20018;-77
2022/04/19 01:35:59;;;;;;;;;;;;;;;8.15;100.00;100237.59;5083206;28;20031;-74
2022/04/19 01:38:24;;;;;;;;;;;;;;;8.07;100.00;100224.19;5099338;27;19927;-75
2022/04/19 01:40:50;;;;;;;;;;;;;;;8.03;100.00;100210.91;5081903;28;19916;-75
2022/04/19 01:43:15;;;;;;;;;;;;;;;8.00;100.00;100201.25;5080843;28;19965;-76
2022/04/19 01:45:41;;;;;;;;;;;;;;;7.94;100.00;100185.28;5091752;28;19912;-76
2022/04/19 01:48:08;;;;;;;;;;;;;;;7.89;100.00;100176.34;5093129;28;19979;-75
2022/04/19 01:50:36;;;;;;;;;;;;;;;7.94;100.00;100155.53;5091842;28;19919;-76
2022/04/19 01:53:04;;;;;;;;;;;;;;;7.93;100.00;100130.19;5103033;28;20076;-77
2022/04/19 01:55:30;;;;;;;;;;;;;;;7.90;100.00;100123.97;5080679;28;20071;-76
2022/04/19 01:57:57;;;;;;;;;;;;;;;7.79;100.00;100120.09;5095424;28;20376;-75
2022/04/19 02:00:22;;;;;;;;;;;;;;;7.73;100.00;100106.75;5106289;27;19922;-75
2022/04/19 02:02:48;;;;;;;;;;;;;;;7.73;100.00;100094.53;5089610;28;19920;-77
2022/04/19 02:05:14;;;;;;;;;;;;;;;7.64;100.00;100080.22;5084861;28;19920;-77
2022/04/19 02:07:40;;;;;;;;;;;;;;;7.62;100.00;100066.19;5082148;28;19984;-76
2022/04/19 02:10:06;;;;;;;;;;;;;;;7.67;100.00;100056.75;5087532;28;19926;-78
2022/04/19 02:12:33;;;;;;;;;;;;;;;7.62;100.00;100055.72;5087923;28;19916;-77
2022/04/19 02:15:06;;;;;;;;;;;;;;;7.58;100.00;100044.22;5095457;28;19916;-75
2022/04/19 02:17:31;;;;;;;;;;;;;;;7.51;100.00;100048.34;5087107;28;19920;-77
2022/04/19 02:20:00;;;;;;;;;;;;;;;7.49;100.00;100043.91;5095181;28;19930;-77
2022/04/19 02:22:27;;;;;;;;;;;;;;;7.48;100.00;100045.63;5096242;28;19915;-77
2022/04/19 02:24:53;;;;;;;;;;;;;;;7.45;100.00;100040.28;5081633;28;19919;-77
2022/04/19 02:27:18;;;;;;;;;;;;;;;7.41;100.00;100030.53;5084394;28;19965;-78
2022/04/19 02:29:44;;;;;;;;;;;;;;;7.41;100.00;100019.16;5081731;28;19916;-76
2022/04/19 02:32:09;;;;;;;;;;;;;;;7.36;100.00;100016.38;5096362;28;20378;-77
2022/04/19 02:34:35;;;;;;;;;;;;;;;7.36;100.00;100017.28;5087955;28;19919;-77
2022/04/19 02:37:01;;;;;;;;;;;;;;;7.35;100.00;100010.25;5094858;28;19941;-78
2022/04/19 02:39:26;;;;;;;;;;;;;;;7.36;100.00;100008.50;5091572;28;19920;-78
2022/04/19 02:41:53;;;;;;;;;;;;;;;7.32;100.00;99998.78;5095257;28;19916;-76
2022/04/19 02:44:20;;;;;;;;;;;;;;;7.32;100.00;99998.78;5107550;28;19979;-76
2022/04/19 02:46:45;;;;;;;;;;;;;;;7.30;100.00;99989.97;5091349;28;19924;-76
2022/04/19 02:49:11;;;;;;;;;;;;;;;7.23;100.00;99985.38;5076804;28;20011;-76
2022/04/19 02:51:36;;;;;;;;;;;;;;;7.16;100.00;99984.22;5071750;27;19924;-78
2022/04/19 02:54:04;;;;;;;;;;;;;;;7.08;100.00;99973.50;5102653;28;19916;-78
2022/04/19 02:56:29;;;;;;;;;;;;;;;7.10;100.00;99965.69;5093872;28;20342;-78
2022/04/19 02:58:55;;;;;;;;;;;;;;;7.12;100.00;99962.31;5086061;28;19969;-78
2022/04/19 03:01:20;;;;;;;;;;;;;;;7.09;100.00;99953.47;5084866;28;19945;-78
2022/04/19 03:03:46;;;;;;;;;;;;;;;7.12;100.00;99954.44;5104283;28;20383;-77
2022/04/19 03:06:12;;;;;;;;;;;;;;;7.13;100.00;99937.91;5075540;28;19920;-78
2022/04/19 03:08:37;;;;;;;;;;;;;;;7.11;100.00;99936.06;5091343;28;19974;-78
2022/04/19 03:11:02;;;;;;;;;;;;;;;7.09;100.00;99933.41;5111525;28;20283;-78
2022/04/19 03:13:36;;;;;;;;;;;;;;;7.07;100.00;99931.53;5116154;27;20002;-77
2022/04/19 03:16:13;;;;;;;;;;;;;;;7.04;100.00;99918.34;5107256;28;19928;-77
2022/04/19 03:18:38;;;;;;;;;;;;;;;7.05;100.00;99909.66;5099219;28;19918;-77
2022/04/19 03:21:04;;;;;;;;;;;;;;;7.07;100.00;99908.00;5095130;28;19926;-78
2022/04/19 03:28:58;;;;;;;;;;;;;;;7.04;100.00;99872.16;5120642;28;19926;-75
2022/04/19 03:31:23;;;;;;;;;;;;;;;7.01;100.00;99866.81;5088198;28;20002;-75
2022/04/19 03:33:52;;;;;;;;;;;;;;;7.02;100.00;99847.63;5093404;28;19920;-76
2022/04/19 03:36:18;;;;;;;;;;;;;;;6.99;100.00;99839.66;5078991;28;19920;-76
2022/04/19 03:38:44;;;;;;;;;;;;;;;6.98;100.00;99841.41;5080780;28;19916;-75
2022/04/19 03:41:09;;;;;;;;;;;;;;;6.90;100.00;99841.97;5074197;28;19989;-74
2022/04/19 03:43:37;;;;;;;;;;;;;;;6.86;100.00;99827.00;5093930;28;19970;-75
2022/04/19 03:46:02;;;;;;;;;;;;;;;6.81;100.00;99824.22;5090808;28;19920;-76
2022/04/19 03:48:28;;;;;;;;;;;;;;;6.79;100.00;99818.94;5096146;28;19995;-77
2022/04/19 03:50:53;;;;;;;;;;;;;;;6.83;100.00;99806.84;5094835;28;19916;-77
2022/04/19 03:53:28;;;;;;;;;;;;;;;6.83;100.00;99804.22;5077066;28;19923;-77
2022/04/19 03:55:53;;;;;;;;;;;;;;;6.85;100.00;99796.44;5092462;28;19975;-78
2022/04/19 03:58:18;;;;;;;;;;;;;;;6.85;100.00;99793.81;5086941;28;20026;-78
2022/04/19 04:00:44;;;;;;;;;;;;;;;6.83;100.00;99789.41;5090289;28;19923;-78
2022/04/19 04:03:10;;;;;;;;;;;;;;;6.79;100.00;99782.31;5092741;28;19922;-77
2022/04/19 04:05:35;;;;;;;;;;;;;;;6.78;100.00;99774.41;5094570;28;19927;-78
2022/04/19 04:08:01;;;;;;;;;;;;;;;6.76;100.00;99755.16;5092887;28;19920;-76
2022/04/19 04:10:26;;;;;;;;;;;;;;;6.74;100.00;99747.28;5081752;28;20429;-76
2022/04/19 04:12:51;;;;;;;;;;;;;;;6.70;100.00;99742.75;5106218;28;19927;-75
2022/04/19 04:15:16;;;;;;;;;;;;;;;6.71;100.00;99728.84;5092781;28;20586;-76
2022/04/19 04:17:42;;;;;;;;;;;;;;;6.69;100.00;99727.88;5083728;28;19959;-76
2022/04/19 04:20:07;;;;;;;;;;;;;;;6.69;100.00;99711.31;5070898;28;20032;-75
2022/04/19 04:22:33;;;;;;;;;;;;;;;6.71;100.00;99701.78;5074035;28;19966;-76
2022/04/19 04:24:59;;;;;;;;;;;;;;;6.71;100.00;99689.59;5083193;28;19919;-75
2022/04/19 04:27:25;;;;;;;;;;;;;;;6.70;100.00;99684.31;5085921;28;19967;-76
2022/04/19 04:29:50;;;;;;;;;;;;;;;6.71;100.00;99673.91;5091275;28;19955;-75
2022/04/19 04:32:16;;;;;;;;;;;;;;;6.70;100.00;99671.25;5095138;28;20010;-77
2022/04/19 04:34:42;;;;;;;;;;;;;;;6.73;100.00;99653.91;5091877;28;20387;-75
2022/04/19 04:37:08;;;;;;;;;;;;;;;6.75;100.00;99639.13;5085411;28;19920;-75
2022/04/19 04:39:33;;;;;;;;;;;;;;;6.78;100.00;99634.00;5089720;28;19972;-75
2022/04/19 04:41:58;;;;;;;;;;;;;;;6.80;100.00;99624.47;5092788;28;20322;-75
2022/04/19 04:44:25;;;;;;;;;;;;;;;6.83;100.00;99608.84;5111298;28;19916;-76
2022/04/19 04:49:37;;;;;;;;;;;;;;;6.90;100.00;99585.50;5110086;28;19927;-78
2022/04/19 04:52:10;;;;;;;;;;;;;;;6.97;100.00;99569.16;5089924;28;19975;-76
2022/04/19 04:54:36;;;;;;;;;;;;;;;7.01;100.00;99555.31;5079831;28;19916;-77
2022/04/19 04:57:02;;;;;;;;;;;;;;;7.11;100.00;99546.88;5109924;28;19927;-75
2022/04/19 04:59:29;;;;;;;;;;;;;;;7.76;100.00;99498.88;5087731;28;19920;-76
2022/04/19 05:01:54;;;;;;;;;;;;;;;8.88;100.00;99427.13;5087278;28;19920;-76
2022/04/19 05:04:21;;;;;;;;;;;;;;;9.76;100.00;99372.66;5089673;28;19920;-76
2022/04/19 05:06:47;;;;;;;;;;;;;;;10.31;100.00;99344.50;5083581;28;20011;-76
2022/04/19 05:09:12;;;;;;;;;;;;;;;10.88;100.00;99346.94;5076990;28;20018;-76
2022/04/19 05:11:37;;;;;;;;;;;;;;;11.10;100.00;99384.94;5093335;28;19916;-77
2022/04/19 05:14:03;;;;;;;;;;;;;;;11.25;100.00;99445.69;5090244;28;19927;-77
2022/04/19 05:16:29;;;;;;;;;;;;;;;11.35;100.00;99515.19;5114884;28;19916;-76
2022/04/19 05:18:54;;;;;;;;;;;;;;;11.93;100.00;99574.72;5092295;28;19916;-77
2022/04/19 05:21:20;;;;;;;;;;;;;;;12.72;100.00;99629.09;5104400;28;19916;-76
2022/04/19 05:23:45;;;;;;;;;;;;;;;12.90;100.00;99734.91;5095593;28;20413;-76
2022/04/19 05:26:10;;;;;;;;;;;;;;;13.10;100.00;99837.28;5096162;28;19915;-75
2022/04/19 05:28:35;;;;;;;;;;;;;;;13.14;100.00;99920.13;5083979;28;19920;-75
2022/04/19 05:31:01;;;;;;;;;;;;;;;13.43;100.00;99979.50;5113772;27;20360;-77
2022/04/19 05:33:27;;;;;;;;;;;;;;;13.76;100.00;100033.63;5076803;28;19923;-77
2022/04/19 05:35:52;;;;;;;;;;;;;;;13.82;100.00;100147.47;5087298;28;19920;-77
2022/04/19 05:38:20;;;;;;;;;;;;;;;14.06;100.00;100217.47;5096029;27;19971;-76
2022/04/19 05:40:45;;;;;;;;;;;;;;;14.61;100.00;100278.13;5090150;28;19977;-75
2022/04/19 05:43:10;;;;;;;;;;;;;;;15.41;100.00;100325.66;5093138;28;20576;-75
2022/04/19 05:45:35;;;;;;;;;;;;;;;15.03;100.00;100417.25;5095456;28;20124;-75
2022/04/19 05:48:01;;;;;;;;;;;;;;;14.76;100.00;100486.78;5094619;28;19927;-76
2022/04/19 05:50:26;;;;;;;;;;;;;;;15.82;100.00;100502.97;5094657;28;20280;-76
2022/04/19 05:52:52;;;;;;;;;;;;;;;15.17;100.00;100602.19;5086751;28;19916;-75
2022/04/19 05:55:18;;;;;;;;;;;;;;;14.17;100.00;100802.78;5075566;28;19916;-76
2022/04/19 05:57:43;;;;;;;;;;;;;;;13.98;100.00;100924.16;5093111;28;20026;-75
2022/04/19 06:00:09;;;;;;;;;;;;;;;14.29;100.00;101062.59;5094904;28;19912;-77
2022/04/19 06:05:18;;;;;;;;;;;;;;;13.94;100.00;101224.09;5113859;28;19977;-76
2022/04/19 06:07:44;;;;;;;;;;;;;;;14.56;100.00;101273.47;5114337;28;19924;-76
2022/04/19 06:10:10;;;;;;;;;;;;;;;14.16;100.00;101315.63;5100809;28;19932;-77
2022/04/19 06:12:35;;;;;;;;;;;;;;;14.11;100.00;101332.25;5092020;28;19919;-76
2022/04/19 06:15:00;;;;;;;;;;;;;;;14.41;100.00;101341.94;5095309;28;20018;-78
2022/04/19 06:17:37;;;;;;;;;;;;;;;14.87;100.00;101362.66;5093678;28;19932;-77
2022/04/19 06:20:03;;;;;;;;;;;;;;;15.50;100.00;101376.59;5114008;28;19943;-76
2022/04/19 06:22:29;;;;;;;;;;;;;;;15.49;100.00;101397.81;5113171;28;19970;-78
2022/04/19 06:24:55;;;;;;;;;;;;;;;15.23;100.00;101401.59;5113439;28;19956;-78
2022/04/19 06:27:20;;;;;;;;;;;;;;;14.61;100.00;101399.06;5091893;28;19927;-76
2022/04/19 06:29:46;;;;;;;;;;;;;;;15.05;100.00;101399.34;5093899;28;20329;-74
2022/04/19 06:32:13;;;;;;;;;;;;;;;16.03;100.00;101407.97;5093695;28;19927;-74
2022/04/19 06:34:38;;;;;;;;;;;;;;;15.89;100.00;101423.59;5095266;28;19922;-75
2022/04/19 06:37:04;;;;;;;;;;;;;;;16.17;100.00;101439.25;5086175;28;19920;-76
2022/04/19 06:39:31;;;;;;;;;;;;;;;15.90;100.00;101443.09;5089301;28;20014;-75
2022/04/19 06:41:56;;;;;;;;;;;;;;;15.37;100.00;101447.06;5112872;28;20372;-75
2022/04/19 06:44:22;;;;;;;;;;;;;;;15.18;100.00;101434.16;5094852;28;19916;-75
2022/04/19 06:46:50;;;;;;;;;;;;;;;15.22;100.00;101441.38;5093911;28;19912;-75
2022/04/19 06:49:16;;;;;;;;;;;;;;;14.85;100.00;101435.06;5094200;28;19916;-75
2022/04/19 06:51:41;;;;;;;;;;;;;;;15.27;100.00;101431.75;5094748;28;19911;-77
2022/04/19 06:54:09;;;;;;;;;;;;;;;15.79;100.00;101446.38;5094243;28;20347;-76
2022/04/19 06:56:35;;;;;;;;;;;;;;;15.40;100.00;101439.19;5094784;28;20256;-76
2022/04/19 06:59:00;;;;;;;;;;;;;;;15.19;100.00;101457.19;5112597;28;19961;-77
2022/04/19 07:01:26;;;;;;;;;;;;;;;14.82;100.00;101440.28;5094835;28;20006;-76
2022/04/19 07:03:52;;;;;;;;;;;;;;;14.70;100.00;101440.84;5094436;28;19915;-76
2022/04/19 07:06:18;;;;;;;;;;;;;;;14.93;100.00;101453.84;5091601;28;19962;-78
2022/04/19 07:08:43;;;;;;;;;;;;;;;14.68;100.00;101450.47;5094583;28;19955;-76
2022/04/19 07:11:08;;;;;;;;;;;;;;;14.46;100.00;101451.59;5094186;28;20500;-76
2022/04/19 07:13:35;;;;;;;;;;;;;;;14.64;100.00;101446.84;5094169;28;20052;-77
2022/04/19 07:16:02;;;;;;;;;;;;;;;14.89;100.00;101458.16;5091195;28;19916;-78
2022/04/19 07:18:29;;;;;;;;;;;;;;;15.59;100.00;101455.59;5094125;28;19912;-78
2022/04/19 07:29:10;;;;;;;;;;;;;;;16.52;100.00;101482.56;5112645;28;19954;-80
2022/04/19 07:31:36;;;;;;;;;;;;;;;16.88;100.00;101480.69;5094576;28;19911;-80
2022/04/19 07:34:05;;;;;;;;;;;;;;;17.28;100.00;101486.78;5094395;28;19916;-80
2022/04/19 07:36:30;;;;;;;;;;;;;;;17.63;100.00;101489.16;5112311;28;19923;-81
2022/04/19 07:38:57;;;;;;;;;;;;;;;18.35;100.00;101487.66;5077541;28;19919;-76
2022/04/19 07:41:23;;;;;;;;;;;;;;;17.89;100.00;101509.16;5077602;28;19927;-79
2022/04/19 07:43:50;;;;;;;;;;;;;;;18.06;100.00;101500.56;5112047;28;19916;-76
2022/04/19 07:46:16;;;;;;;;;;;;;;;18.00;100.00;101496.00;5094698;28;19916;-80
2022/04/19 07:48:42;;;;;;;;;;;;;;;17.63;100.00;101498.03;5094404;28;19920;-78
2022/04/19 07:51:08;;;;;;;;;;;;;;;17.36;100.00;101490.47;5093475;28;19965;-79
2022/04/19 07:53:33;;;;;;;;;;;;;;;17.13;100.00;101490.91;5094233;28;20010;-77
2022/04/19 07:55:58;;;;;;;;;;;;;;;18.15;100.00;101487.38;5092936;28;20008;-77
2022/04/19 07:58:24;;;;;;;;;;;;;;;18.09;100.00;101492.59;5092758;28;19923;-76
2022/04/19 08:00:49;;;;;;;;;;;;;;;18.63;100.00;101491.59;5095882;28;19916;-76
2022/04/19 08:03:15;;;;;;;;;;;;;;;18.91;100.00;101486.63;5096689;28;19915;-75
2022/04/19 08:05:40;;;;;;;;;;;;;;;18.01;100.00;101492.50;5096998;28;19916;-75
2022/04/19 08:08:05;;;;;;;;;;;;;;;17.40;100.00;101489.63;5096815;28;20377;-75
2022/04/19 08:10:31;;;;;;;;;;;;;;;17.37;100.00;101484.25;5096874;28;19951;-76
2022/04/19 08:12:56;;;;;;;;;;;;;;;17.63;100.00;101491.81;5097316;28;19930;-77
2022/04/19 08:15:22;;;;;;;;;;;;;;;17.75;100.00;101494.69;5097681;28;19950;-74
2022/04/19 08:17:48;;;;;;;;;;;;;;;17.23;100.00;101490.25;5097346;28;20015;-76
2022/04/19 08:20:13;;;;;;;;;;;;;;;17.30;100.00;101490.34;5097522;28;19959;-76
2022/04/19 08:22:39;;;;;;;;;;;;;;;17.63;100.00;101491.81;5115177;28;19942;-78
2022/04/19 08:25:06;;;;;;;;;;;;;;;18.00;100.00;101500.47;5096224;28;19915;-75
2022/04/19 08:27:37;;;;;;;;;;;;;;;18.77;100.00;101496.22;5080243;28;19920;-75
2022/04/19 08:30:03;;;;;;;;;;;;;;;18.39;100.00;101504.59;5096826;28;19982;-75
2022/04/19 08:32:29;;;;;;;;;;;;;;;18.13;100.00;101505.09;5096933;28;19920;-77
2022/04/19 08:34:56;;;;;;;;;;;;;;;18.37;100.00;101504.56;5096119;28;19968;-76
2022/04/19 08:37:22;;;;;;;;;;;;;;;18.53;100.00;101505.66;5097042;28;20024;-75
2022/04/19 08:39:47;;;;;;;;;;;;;;;18.67;100.00;101508.53;5096269;28;20008;-75
2022/04/19 08:42:12;;;;;;;;;;;;;;;18.24;100.00;101513.25;5096572;28;19916;-75
2022/04/19 08:44:39;;;;;;;;;;;;;;;18.52;100.00;101506.56;5096744;28;20390;-75
2022/04/19 08:47:05;;;;;;;;;;;;;;;18.61;100.00;101505.78;5095603;28;19945;-76
2022/04/19 08:49:31;;;;;;;;;;;;;;;18.66;100.00;101507.63;5096394;28;19922;-76
2022/04/19 08:51:57;;;;;;;;;;;;;;;18.73;100.00;101502.38;5113852;28;19916;-74
2022/04/19 08:59:53;;;;;;;;;;;;;;;17.75;100.00;101510.69;5114398;28;19923;-78
2022/04/19 09:02:22;;;;;;;;;;;;;;;17.69;100.00;101505.25;5096833;28;20010;-77
2022/04/19 09:04:48;;;;;;;;;;;;;;;17.97;100.00;101503.06;5096006;28;19997;-77
2022/04/19 09:07:14;;;;;;;;;;;;;;;17.80;100.00;101502.75;5096675;28;20323;-76
2022/04/19 09:09:39;;;;;;;;;;;;;;;17.61;100.00;101493.56;5114826;28;19920;-77
2022/04/19 09:12:10;;;;;;;;;;;;;;;17.78;100.00;101494.75;5113818;28;19916;-79
2022/04/19 09:14:53;;;;;;;;;;;;;;;17.82;100.00;101493.94;5079773;28;20410;-77
2022/04/19 09:17:28;;;;;;;;;;;;;;;18.11;100.00;101499.72;5096455;28;20398;-78
2022/04/19 09:19:53;;;;;;;;;;;;;;;17.76;100.00;101502.72;5096046;28;19934;-78
2022/04/19 09:22:25;;;;;;;;;;;;;;;17.82;100.00;101495.69;5096157;28;19911;-78
2022/04/19 09:24:53;;;;;;;;;;;;;;;17.17;100.00;101481.25;5113805;28;19920;-77
2022/04/19 09:27:31;;;;;;;;;;;;;;;16.97;100.00;101489.75;5114047;28;20284;-77
2022/04/19 09:30:14;;;;;;;;;;;;;;;16.90;100.00;101485.16;5096253;28;19920;-76
2022/04/19 09:32:41;;;;;;;;;;;;;;;17.03;100.00;101486.31;5114931;28;20394;-78
2022/04/19 09:35:06;;;;;;;;;;;;;;;17.18;100.00;101483.94;5096278;28;19920;-78
2022/04/19 09:37:32;;;;;;;;;;;;;;;17.14;100.00;101484.75;5096916;28;20094;-78
2022/04/19 09:39:57;;;;;;;;;;;;;;;17.58;100.00;101479.31;5096711;28;20375;-78
2022/04/19 09:42:26;;;;;;;;;;;;;;;17.74;100.00;101476.91;5114297;28;19916;-78
2022/04/19 09:44:51;;;;;;;;;;;;;;;17.75;100.00;101487.59;5114604;28;19926;-78
2022/04/19 09:47:17;;;;;;;;;;;;;;;17.48;100.00;101482.72;5096333;28;19924;-77
2022/04/19 09:49:46;;;;;;;;;;;;;;;17.69;100.00;101478.63;5114377;28;19930;-78
2022/04/19 09:52:38;;;;;;;;;;;;;;;17.83;100.00;101482.38;5095781;28;19976;-76
2022/04/19 09:55:10;;;;;;;;;;;;;;;17.80;100.00;101479.69;5084091;28;20287;-77
2022/04/19 09:57:37;;;;;;;;;;;;;;;17.74;100.00;101488.47;5096013;28;19916;-79
2022/04/19 10:00:07;;;;;;;;;;;;;;;17.70;100.00;101494.63;5095950;28;19920;-78
2022/04/19 10:08:13;;;;;;;;;;;;;;;17.91;100.00;101488.78;5114217;28;19923;-76
2022/04/19 10:10:40;;;;;;;;;;;;;;;17.86;100.00;101487.75;5113495;28;19916;-76
2022/04/19 10:13:06;;;;;;;;;;;;;;;18.30;100.00;101481.34;5094240;28;19923;-76
2022/04/19 10:15:35;;;;;;;;;;;;;;;18.25;100.00;101486.63;5094555;28;19916;-75
2022/04/19 10:18:02;;;;;;;;;;;;;;;18.77;100.00;101493.56;5095004;28;19923;-78
2022/04/19 10:20:32;;;;;;;;;;;;;;;18.40;100.00;101490.41;5095390;28;19912;-78
2022/04/19 10:23:04;;;;;;;;;;;;;;;18.17;100.00;101485.63;5094424;28;20416;-76
2022/04/19 10:25:43;;;;;;;;;;;;;;;18.49;100.00;101487.84;5095115;28;19923;-76
2022/04/19 10:28:09;;;;;;;;;;;;;;;18.16;100.00;101486.47;5095231;28;20011;-76
2022/04/19 10:30:39;;;;;;;;;;;;;;;18.73;100.00;101471.25;5095232;28;19916;-75
2022/04/19 10:36:11;;;;;;;;;;;;;;;17.85;100.00;101472.69;5113838;28;19915;-77
2022/04/19 10:38:36;;;;;;;;;;;;;;;18.20;100.00;101487.44;5095422;28;19916;-76
2022/04/19 10:41:03;;;;;;;;;;;;;;;18.46;100.00;101480.69;5095625;28;19927;-77
2022/04/19 10:43:30;;;;;;;;;;;;;;;18.34;100.00;101491.19;5095769;28;19915;-77
2022/04/19 10:46:14;;;;;;;;;;;;;;;18.04;97.56;101491.66;5095772;28;19988;-78
2022/04/19 10:49:00;;;;;;;;;;;;;;;18.18;92.66;101489.16;5095688;28;19964;-79
2022/04/19 10:51:28;;;;;;;;;;;;;;;18.07;95.62;101492.59;5095337;28;19915;-78
2022/04/19 10:53:54;;;;;;;;;;;;;;;18.03;96.44;101492.50;5113609;28;19923;-78
2022/04/19 10:56:19;;;;;;;;;;;;;;;17.81;97.89;101489.47;5110392;28;19939;-79
2022/04/19 10:58:45;;;;;;;;;;;;;;;17.94;100.00;101495.91;5095549;28;20359;-77
2022/04/19 11:01:27;;;;;;;;;;;;;;;18.25;100.00;101480.41;5113177;28;19915;-76
2022/04/19 11:03:55;;;;;;;;;;;;;;;18.74;99.88;101482.84;5095231;28;19965;-76
2022/04/19 11:06:31;;;;;;;;;;;;;;;18.58;100.00;101479.06;5092676;28;19950;-76
2022/04/19 11:09:16;;;;;;;;;;;;;;;18.65;100.00;101472.94;5113142;28;20375;-75
2022/04/19 11:11:46;;;;;;;;;;;;;;;18.52;100.00;101482.56;5095089;28;19941;-77
2022/04/19 11:14:17;;;;;;;;;;;;;;;18.33;100.00;101477.84;5112959;28;20018;-74
2022/04/19 11:16:43;;;;;;;;;;;;;;;18.14;100.00;101474.91;5113199;28;19916;-76
2022/04/19 11:19:18;;;;;;;;;;;;;;;17.94;100.00;101480.84;5094149;28;20011;-76
2022/04/19 11:21:54;;;;;;;;;;;;;;;18.17;100.00;101477.63;5095128;28;19916;-76
2022/04/19 11:24:53;;;;;;;;;;;;;;;18.34;100.00;101464.53;5095014;28;19920;-76
2022/04/19 11:27:18;;;;;;;;;;;;;;;18.51;100.00;101467.44;5040351;28;19916;-77
2022/04/19 11:29:50;;;;;;;;;;;;;;;18.41;100.00;101465.50;5095274;28;19922;-77
2022/04/19 11:32:23;;;;;;;;;;;;;;;18.69;100.00;101465.88;5095192;28;20016;-77
2022/04/19 11:35:01;;;;;;;;;;;;;;;19.13;100.00;101468.19;5093761;28;19922;-78
2022/04/19 11:37:26;;;;;;;;;;;;;;;18.74;91.19;101470.38;5095329;28;19916;-75
2022/04/19 11:48:09;;;;;;;;;;;;;;;18.91;99.23;101453.69;5113110;28;19918;-78
2022/04/19 11:50:35;;;;;;;;;;;;;;;19.25;85.38;101462.97;5095401;28;19915;-78
2022/04/19 11:53:02;;;;;;;;;;;;;;;19.33;83.41;101469.28;5077671;28;19927;-77
2022/04/19 11:55:27;;;;;;;;;;;;;;;19.04;86.83;101460.09;5094580;28;20395;-78
2022/04/19 11:58:06;;;;;;;;;;;;;;;18.92;81.04;101464.38;5094613;28;19916;-77
2022/04/19 12:00:31;;;;;;;;;;;;;;;18.90;87.86;101446.59;5113365;28;20002;-78
2022/04/19 12:03:05;;;;;;;;;;;;;;;19.22;78.51;101457.63;5094714;28;20459;-77
2022/04/19 12:05:31;;;;;;;;;;;;;;;19.20;74.47;101464.69;5095291;28;20424;-78
2022/04/19 12:07:56;;;;;;;;;;;;;;;19.11;77.24;101454.84;5095309;28;19916;-78
2022/04/19 12:10:22;;;;;;;;;;;;;;;19.21;70.50;101461.16;5096434;28;19988;-78
2022/04/19 12:12:48;;;;;;;;;;;;;;;19.21;66.94;101454.94;5113708;28;19916;-78
2022/04/19 12:15:35;;;;;;;;;;;;;;;19.40;75.53;101450.66;5095066;28;19916;-78
2022/04/19 12:18:00;;;;;;;;;;;;;;;19.07;69.64;101465.47;5093768;28;19915;-79
2022/04/19 12:20:26;;;;;;;;;;;;;;;19.13;70.31;101457.53;5113042;28;19915;-78
2022/04/19 12:22:51;;;;;;;;;;;;;;;18.83;68.11;101451.81;5094919;28;19922;-79
2022/04/19 12:25:20;;;;;;;;;;;;;;;18.64;67.82;101455.13;5094800;28;19920;-79
2022/04/19 12:27:50;;;;;;;;;;;;;;;18.56;68.83;101444.38;5095098;28;20318;-80
2022/04/19 12:30:15;;;;;;;;;;;;;;;18.98;71.21;101443.09;5092758;28;19922;-80
2022/04/19 12:32:51;;;;;;;;;;;;;;;19.60;70.28;101449.03;5093610;28;19916;-79
2022/04/19 12:35:17;;;;;;;;;;;;;;;19.30;67.69;101447.91;5095195;28;19923;-81
2022/04/19 12:37:42;;;;;;;;;;;;;;;19.38;74.62;101438.16;5113336;28;19937;-81
2022/04/19 12:40:08;;;;;;;;;;;;;;;19.22;73.89;101438.94;5095020;28;19927;-81
2022/04/19 12:42:49;;;;;;;;;;;;;;;19.34;81.53;101436.38;5111994;28;20338;-80
2022/04/19 12:45:14;;;;;;;;;;;;;;;19.19;74.83;101438.91;5094366;28;19971;-77
2022/04/19 12:47:50;;;;;;;;;;;;;;;19.01;74.47;101435.13;5096304;28;20032;-77
2022/04/19 12:50:16;;;;;;;;;;;;;;;18.82;69.62;101431.34;5097905;28;19916;-78
2022/04/19 12:52:41;;;;;;;;;;;;;;;19.00;72.61;101425.38;5097804;28;19915;-78
2022/04/19 12:55:09;;;;;;;;;;;;;;;18.88;71.47;101426.97;5096679;28;19920;-77
2022/04/19 12:57:36;;;;;;;;;;;;;;;18.66;70.36;101424.94;5115501;28;19916;-78
2022/04/19 13:00:01;;;;;;;;;;;;;;;18.77;79.67;101424.19;5079513;28;19924;-78
2022/04/19 13:02:31;;;;;;;;;;;;;;;18.87;78.51;101423.44;5096978;28;20008;-77
2022/04/19 13:04:57;;;;;;;;;;;;;;;18.80;79.46;101413.56;5079548;28;19919;-76
2022/04/19 13:12:16;;;;;;;;;;;;;;;18.80;80.25;101413.56;5094840;28;19931;-74
2022/04/19 13:13:10;;;;;;;;;;;;;;;18.77;77.63;101416.19;5093968;28;19977;-76
2022/04/19 13:15:36;;;;;;;;;;;;;;;18.77;79.83;101408.19;5087632;28;19920;-78
2022/04/19 13:18:01;;;;;;;;;;;;;;;18.75;76.36;101413.50;5059328;28;19928;-76
2022/04/19 13:20:26;;;;;;;;;;;;;;;18.81;79.07;101404.66;5075744;28;19916;-77